createdAt,value
2017-09-24T00:00:48.492Z,13.20
2017-09-24T00:03:16.005Z,13.20
2017-09-24T00:05:43.975Z,13.10
2017-09-24T00:08:11.475Z,13.10
2017-09-24T00:10:38.988Z,13.20
2017-09-24T00:13:06.549Z,13.10
2017-09-24T00:15:34.050Z,13.10
2017-09-24T00:18:01.546Z,13.10
2017-09-24T00:20:29.059Z,13.10
2017-09-24T00:22:56.966Z,13.10
2017-09-24T00:25:24.495Z,13.00
2017-09-24T00:27:52.391Z,13.00
2017-09-24T00:30:21.019Z,13.00
2017-09-24T00:32:49.662Z,12.90
2017-09-24T00:35:17.159Z,12.90
2017-09-24T00:37:46.175Z,12.90
2017-09-24T00:40:14.075Z,12.90
2017-09-24T00:42:42.711Z,13.00
2017-09-24T00:45:10.231Z,12.90
2017-09-24T00:47:38.865Z,12.90
2017-09-24T00:50:06.355Z,12.80
2017-09-24T00:55:03.275Z,12.80
2017-09-24T00:57:31.346Z,12.80
2017-09-24T00:59:58.938Z,12.80
2017-09-24T01:02:26.459Z,12.70
2017-09-24T01:04:53.959Z,12.70
2017-09-24T01:07:21.471Z,12.60
2017-09-24T01:09:49.364Z,12.60
2017-09-24T01:12:16.876Z,12.60
2017-09-24T01:14:44.371Z,12.60
2017-09-24T01:17:11.889Z,12.50
2017-09-24T01:19:39.400Z,12.50
2017-09-24T01:22:06.932Z,12.50
2017-09-24T01:24:35.376Z,12.50
2017-09-24T01:27:02.893Z,12.40
2017-09-24T01:29:30.395Z,12.40
2017-09-24T01:31:57.920Z,12.40
2017-09-24T01:34:25.621Z,12.40
2017-09-24T01:36:53.535Z,12.30
2017-09-24T01:39:21.127Z,12.30
2017-09-24T01:44:17.506Z,12.30
2017-09-24T01:46:45.032Z,12.30
2017-09-24T01:49:12.587Z,12.40
2017-09-24T01:51:40.875Z,12.40
2017-09-24T01:54:09.144Z,12.30
2017-09-24T01:56:37.432Z,12.30
2017-09-24T01:59:05.699Z,12.30
2017-09-24T02:04:02.457Z,12.20
2017-09-24T02:06:29.983Z,12.30
2017-09-24T02:08:57.491Z,12.20
2017-09-24T02:11:25.024Z,12.20
2017-09-24T02:13:52.532Z,12.10
2017-09-24T02:16:20.799Z,12.10
2017-09-24T02:18:49.062Z,12.10
2017-09-24T02:21:17.687Z,12.10
2017-09-24T02:23:45.191Z,12.10
2017-09-24T02:26:12.699Z,12.10
2017-09-24T02:28:41.331Z,12.10
2017-09-24T02:31:08.922Z,12.00
2017-09-24T02:33:36.815Z,12.00
2017-09-24T02:36:04.321Z,12.00
2017-09-24T02:38:33.335Z,12.00
2017-09-24T02:41:00.844Z,12.00
2017-09-24T02:43:28.354Z,12.00
2017-09-24T02:48:24.798Z,12.10
2017-09-24T02:50:52.299Z,12.00
2017-09-24T02:53:19.797Z,12.00
2017-09-24T02:58:16.971Z,12.20
2017-09-24T03:00:45.991Z,12.20
2017-09-24T03:03:13.517Z,12.10
2017-09-24T03:05:42.163Z,12.00
2017-09-24T03:10:38.626Z,12.00
2017-09-24T03:13:07.291Z,12.10
2017-09-24T03:15:34.795Z,12.10
2017-09-24T03:18:03.455Z,12.00
2017-09-24T03:20:30.963Z,12.00
2017-09-24T03:22:58.560Z,12.00
2017-09-24T03:25:26.222Z,11.90
2017-09-24T03:27:53.747Z,12.00
2017-09-24T03:30:22.025Z,12.00
2017-09-24T03:32:51.263Z,11.90
2017-09-24T03:35:19.718Z,11.90
2017-09-24T03:37:47.239Z,11.90
2017-09-24T03:40:14.737Z,11.90
2017-09-24T03:42:42.259Z,11.90
2017-09-24T03:45:09.943Z,11.90
2017-09-24T03:47:37.571Z,11.90
2017-09-24T03:50:05.478Z,11.90
2017-09-24T03:52:32.998Z,11.90
2017-09-24T03:55:02.003Z,11.80
2017-09-24T03:57:29.624Z,11.80
2017-09-24T03:59:57.134Z,11.90
2017-09-24T04:02:24.672Z,11.80
2017-09-24T04:04:52.245Z,11.80
2017-09-24T04:07:20.709Z,11.80
2017-09-24T04:09:48.211Z,11.80
2017-09-24T04:12:16.494Z,11.70
2017-09-24T04:14:44.004Z,11.70
2017-09-24T04:17:11.523Z,11.70
2017-09-24T04:19:39.110Z,11.70
2017-09-24T04:22:06.627Z,11.80
2017-09-24T04:24:34.144Z,11.70
2017-09-24T04:27:01.670Z,11.70
2017-09-24T04:29:29.247Z,11.60
2017-09-24T04:31:56.751Z,11.60
2017-09-24T04:34:24.242Z,11.60
2017-09-24T04:36:51.744Z,11.50
2017-09-24T04:39:19.243Z,11.50
2017-09-24T04:41:46.757Z,11.50
2017-09-24T04:44:14.356Z,11.50
2017-09-24T04:46:41.871Z,11.50
2017-09-24T04:49:09.377Z,11.50
2017-09-24T04:51:37.339Z,11.50
2017-09-24T04:54:04.831Z,11.50
2017-09-24T04:56:33.479Z,11.40
2017-09-24T04:59:00.987Z,11.40
2017-09-24T05:01:28.500Z,11.50
2017-09-24T05:03:56.031Z,11.50
2017-09-24T05:06:23.528Z,11.40
2017-09-24T05:08:51.051Z,11.40
2017-09-24T05:11:18.563Z,11.40
2017-09-24T05:13:46.887Z,11.50
2017-09-24T05:16:14.545Z,11.50
2017-09-24T05:18:42.205Z,11.50
2017-09-24T05:21:10.107Z,11.40
2017-09-24T05:23:37.730Z,11.30
2017-09-24T05:26:06.908Z,11.30
2017-09-24T05:28:35.567Z,11.30
2017-09-24T05:31:03.967Z,11.40
2017-09-24T05:33:31.886Z,11.30
2017-09-24T05:35:59.387Z,11.30
2017-09-24T05:38:26.911Z,11.30
2017-09-24T05:40:54.409Z,11.30
2017-09-24T05:43:22.071Z,11.30
2017-09-24T05:45:49.566Z,11.30
2017-09-24T05:48:17.092Z,11.30
2017-09-24T05:50:44.991Z,11.40
2017-09-24T05:53:12.526Z,11.30
2017-09-24T05:55:40.024Z,11.30
2017-09-24T05:58:08.315Z,11.30
2017-09-24T06:03:05.132Z,11.50
2017-09-24T06:05:32.647Z,11.50
2017-09-24T06:08:00.183Z,11.50
2017-09-24T06:10:27.751Z,11.50
2017-09-24T06:12:55.404Z,11.50
2017-09-24T06:15:22.907Z,11.60
2017-09-24T06:17:51.734Z,11.60
2017-09-24T06:20:19.238Z,11.70
2017-09-24T06:22:46.776Z,11.80
2017-09-24T06:25:14.305Z,11.80
2017-09-24T06:27:41.961Z,11.80
2017-09-24T06:30:09.468Z,11.90
2017-09-24T06:32:36.999Z,11.90
2017-09-24T06:35:04.507Z,12.00
2017-09-24T06:37:32.011Z,12.10
2017-09-24T06:39:59.926Z,12.20
2017-09-24T06:42:28.203Z,12.20
2017-09-24T06:44:56.105Z,12.30
2017-09-24T06:47:23.611Z,12.30
2017-09-24T06:49:51.115Z,12.30
2017-09-24T06:52:18.619Z,12.40
2017-09-24T06:54:46.118Z,12.50
2017-09-24T06:57:13.776Z,12.50
2017-09-24T06:59:41.424Z,12.60
2017-09-24T07:02:09.319Z,12.70
2017-09-24T07:04:36.831Z,12.80
2017-09-24T07:07:04.333Z,12.80
2017-09-24T07:09:31.836Z,12.80
2017-09-24T07:11:59.343Z,12.80
2017-09-24T07:14:26.851Z,12.90
2017-09-24T07:16:54.353Z,13.00
2017-09-24T07:19:22.263Z,13.00
2017-09-24T07:21:49.783Z,13.10
2017-09-24T07:24:17.392Z,13.20
2017-09-24T07:26:44.899Z,13.30
2017-09-24T07:29:12.817Z,13.40
2017-09-24T07:31:40.719Z,13.50
2017-09-24T07:34:08.376Z,13.60
2017-09-24T07:36:35.875Z,13.60
2017-09-24T07:39:03.396Z,13.60
2017-09-24T07:41:30.995Z,13.60
2017-09-24T07:44:00.019Z,13.70
2017-09-24T07:46:27.911Z,13.80
2017-09-24T07:48:55.439Z,13.90
2017-09-24T07:53:51.955Z,14.10
2017-09-24T07:56:19.455Z,14.20
2017-09-24T07:58:46.987Z,14.30
2017-09-24T08:01:14.503Z,14.40
2017-09-24T08:03:42.027Z,14.50
2017-09-24T08:06:10.303Z,14.60
2017-09-24T08:08:37.821Z,14.70
2017-09-24T08:11:05.323Z,14.80
2017-09-24T08:13:33.632Z,14.90
2017-09-24T08:16:01.146Z,15.00
2017-09-24T08:18:28.671Z,15.20
2017-09-24T08:20:56.573Z,15.30
2017-09-24T08:23:24.099Z,15.40
2017-09-24T08:25:51.598Z,15.40
2017-09-24T08:28:19.883Z,15.60
2017-09-24T08:30:47.394Z,15.70
2017-09-24T08:33:14.901Z,15.80
2017-09-24T08:35:43.162Z,15.80
2017-09-24T08:38:10.663Z,15.90
2017-09-24T08:40:39.305Z,16.00
2017-09-24T08:43:07.210Z,16.10
2017-09-24T08:45:35.479Z,16.10
2017-09-24T08:48:02.979Z,16.30
2017-09-24T08:50:30.479Z,16.40
2017-09-24T08:52:58.742Z,16.50
2017-09-24T08:55:27.019Z,16.50
2017-09-24T08:57:54.570Z,16.50
2017-09-24T09:00:22.083Z,16.50
2017-09-24T09:02:50.091Z,16.70
2017-09-24T09:05:17.738Z,16.90
2017-09-24T09:07:45.243Z,16.90
2017-09-24T09:10:13.683Z,16.90
2017-09-24T09:12:41.342Z,17.00
2017-09-24T09:15:08.998Z,17.10
2017-09-24T09:17:36.644Z,17.20
2017-09-24T09:20:04.298Z,17.30
2017-09-24T09:22:32.371Z,17.40
2017-09-24T09:24:59.899Z,17.60
2017-09-24T09:27:28.299Z,17.70
2017-09-24T09:29:55.969Z,17.90
2017-09-24T09:32:23.474Z,18.00
2017-09-24T09:37:26.598Z,18.10
2017-09-24T09:39:54.886Z,18.30
2017-09-24T09:42:22.390Z,18.30
2017-09-24T09:44:51.595Z,18.40
2017-09-24T09:47:26.456Z,18.60
2017-09-24T09:49:54.446Z,18.60
2017-09-24T09:52:21.973Z,18.50
2017-09-24T09:54:50.319Z,18.30
2017-09-24T09:57:17.835Z,18.40
2017-09-24T09:59:45.376Z,18.60
2017-09-24T10:02:12.875Z,19.00
2017-09-24T10:04:40.787Z,19.40
2017-09-24T10:07:20.604Z,19.60
2017-09-24T10:10:08.043Z,19.90
2017-09-24T10:12:35.684Z,20.00
2017-09-24T10:15:03.203Z,20.10
2017-09-24T10:17:30.707Z,19.80
2017-09-24T10:19:59.339Z,19.60
2017-09-24T10:22:27.231Z,19.80
2017-09-24T10:24:55.123Z,19.60
2017-09-24T10:27:23.395Z,19.10
2017-09-24T10:30:03.348Z,18.90
2017-09-24T10:32:30.847Z,18.60
2017-09-24T10:34:58.351Z,18.30
2017-09-24T10:37:26.279Z,18.00
2017-09-24T10:39:53.899Z,17.80
2017-09-24T10:42:21.395Z,17.60
2017-09-24T10:44:49.395Z,17.50
2017-09-24T10:47:17.015Z,17.30
2017-09-24T10:49:44.511Z,17.30
2017-09-24T10:54:41.265Z,17.20
2017-09-24T10:57:08.937Z,17.10
2017-09-24T10:59:36.467Z,17.10
2017-09-24T11:02:05.495Z,17.00
2017-09-24T11:04:32.996Z,16.90
2017-09-24T11:07:00.914Z,17.00
2017-09-24T11:09:29.698Z,17.00
2017-09-24T11:11:57.751Z,17.00
2017-09-24T11:14:25.408Z,17.10
2017-09-24T11:16:52.927Z,17.00
2017-09-24T11:19:20.827Z,17.00
2017-09-24T11:21:48.360Z,17.00
2017-09-24T11:24:15.972Z,17.10
2017-09-24T11:26:44.262Z,17.00
2017-09-24T11:29:11.795Z,17.00
2017-09-24T11:31:39.746Z,17.10
2017-09-24T11:34:07.250Z,17.10
2017-09-24T11:36:34.948Z,17.10
2017-09-24T11:39:02.451Z,17.20
2017-09-24T11:41:29.971Z,17.10
2017-09-24T11:43:57.677Z,17.20
2017-09-24T11:46:25.195Z,17.30
2017-09-24T11:48:52.838Z,17.40
2017-09-24T11:51:20.363Z,17.50
2017-09-24T11:53:48.622Z,17.60
2017-09-24T11:56:17.036Z,17.60
2017-09-24T11:58:44.546Z,17.60
2017-09-24T12:01:12.054Z,17.60
2017-09-24T12:03:39.556Z,17.60
2017-09-24T12:06:07.462Z,17.60
2017-09-24T12:08:35.747Z,17.70
2017-09-24T12:11:04.020Z,17.70
2017-09-24T12:13:31.923Z,17.70
2017-09-24T12:15:59.536Z,17.80
2017-09-24T12:20:56.287Z,18.00
2017-09-24T12:23:24.565Z,18.00
2017-09-24T12:25:52.221Z,17.90
2017-09-24T12:28:19.728Z,17.90
2017-09-24T12:30:47.228Z,17.90
2017-09-24T12:33:14.727Z,17.80
2017-09-24T12:35:42.218Z,17.90
2017-09-24T12:38:09.711Z,17.90
2017-09-24T12:40:37.611Z,17.80
2017-09-24T12:43:06.634Z,17.80
2017-09-24T12:45:34.127Z,17.80
2017-09-24T12:48:01.623Z,17.90
2017-09-24T12:50:29.892Z,17.90
2017-09-24T12:52:57.411Z,17.90
2017-09-24T12:55:26.419Z,17.90
2017-09-24T12:57:53.932Z,18.00
2017-09-24T13:00:21.431Z,18.00
2017-09-24T13:05:17.783Z,18.00
2017-09-24T13:10:14.907Z,18.00
2017-09-24T13:15:11.291Z,18.00
2017-09-24T13:17:38.815Z,17.90
2017-09-24T13:20:06.311Z,17.90
2017-09-24T13:22:34.588Z,17.90
2017-09-24T13:25:02.482Z,17.80
2017-09-24T13:27:30.027Z,17.80
2017-09-24T13:29:57.914Z,17.70
2017-09-24T13:32:26.204Z,17.60
2017-09-24T13:34:53.831Z,17.50
2017-09-24T13:37:21.483Z,17.40
2017-09-24T13:39:48.978Z,17.30
2017-09-24T13:42:16.878Z,17.30
2017-09-24T13:44:45.156Z,17.20
2017-09-24T13:47:13.067Z,17.20
2017-09-24T13:49:40.578Z,17.20
2017-09-24T13:52:08.091Z,17.30
2017-09-24T13:54:35.593Z,17.40
2017-09-24T13:57:03.860Z,17.40
2017-09-24T13:59:32.126Z,17.50
2017-09-24T14:02:00.394Z,17.50
2017-09-24T14:04:29.207Z,17.50
2017-09-24T14:06:56.712Z,17.50
2017-09-24T14:09:24.207Z,17.60
2017-09-24T14:11:52.607Z,17.60
2017-09-24T14:14:20.251Z,17.60
2017-09-24T14:16:47.767Z,17.60
2017-09-24T14:19:16.215Z,17.60
2017-09-24T14:21:44.484Z,17.70
2017-09-24T14:24:11.980Z,17.70
2017-09-24T14:26:40.243Z,17.60
2017-09-24T14:29:07.739Z,17.60
2017-09-24T14:31:36.027Z,17.50
2017-09-24T14:34:04.666Z,17.50
2017-09-24T14:36:33.403Z,17.50
2017-09-24T14:39:02.416Z,17.50
2017-09-24T14:41:29.946Z,17.50
2017-09-24T14:43:57.471Z,17.50
2017-09-24T14:46:25.140Z,17.40
2017-09-24T14:48:52.658Z,17.40
2017-09-24T14:51:20.928Z,17.40
2017-09-24T14:53:48.841Z,17.40
2017-09-24T14:56:16.401Z,17.40
2017-09-24T14:58:43.932Z,17.40
2017-09-24T15:01:11.510Z,17.40
2017-09-24T15:03:39.028Z,17.40
2017-09-24T15:06:07.300Z,17.30
2017-09-24T15:08:35.591Z,17.30
2017-09-24T15:11:03.092Z,17.40
2017-09-24T15:13:30.624Z,17.40
2017-09-24T15:15:58.511Z,17.30
2017-09-24T15:18:26.041Z,17.30
2017-09-24T15:20:53.579Z,17.30
2017-09-24T15:23:21.118Z,17.30
2017-09-24T15:25:49.387Z,17.30
2017-09-24T15:28:17.677Z,17.30
2017-09-24T15:33:14.143Z,17.30
2017-09-24T15:35:41.659Z,17.30
2017-09-24T15:38:09.962Z,17.20
2017-09-24T15:40:37.471Z,17.20
2017-09-24T15:43:04.994Z,17.10
2017-09-24T15:45:32.489Z,17.10
2017-09-24T15:48:00.019Z,17.10
2017-09-24T15:50:27.541Z,17.00
2017-09-24T15:52:55.042Z,17.00
2017-09-24T15:55:22.548Z,17.00
2017-09-24T15:57:50.098Z,17.00
2017-09-24T16:00:17.602Z,17.00
2017-09-24T16:02:45.221Z,17.00
2017-09-24T16:05:13.110Z,16.90
2017-09-24T16:07:40.623Z,16.90
2017-09-24T16:10:08.196Z,16.80
2017-09-24T16:12:36.107Z,16.90
2017-09-24T16:15:04.371Z,16.90
2017-09-24T16:17:32.271Z,16.80
2017-09-24T16:20:00.544Z,16.80
2017-09-24T16:22:29.182Z,16.70
2017-09-24T16:24:56.682Z,16.80
2017-09-24T16:27:24.948Z,16.70
2017-09-24T16:29:53.226Z,16.70
2017-09-24T16:32:21.499Z,16.60
2017-09-24T16:34:49.763Z,16.60
2017-09-24T16:37:17.655Z,16.60
2017-09-24T16:39:45.171Z,16.60
2017-09-24T16:42:12.664Z,16.60
2017-09-24T16:44:40.181Z,16.50
2017-09-24T16:47:07.683Z,16.50
2017-09-24T16:49:35.231Z,16.50
2017-09-24T16:52:02.905Z,16.50
2017-09-24T16:54:30.547Z,16.60
2017-09-24T16:56:58.444Z,16.50
2017-09-24T16:59:25.959Z,16.50
2017-09-24T17:01:53.468Z,16.50
2017-09-24T17:04:20.991Z,16.50
2017-09-24T17:06:48.487Z,16.40
2017-09-24T17:09:16.780Z,16.40
2017-09-24T17:11:45.811Z,16.40
2017-09-24T17:14:13.335Z,16.40
2017-09-24T17:16:41.615Z,16.40
2017-09-24T17:19:09.156Z,16.30
2017-09-24T17:21:36.663Z,16.20
2017-09-24T17:24:04.306Z,16.20
2017-09-24T17:26:31.835Z,16.10
2017-09-24T17:29:00.135Z,16.10
2017-09-24T17:31:27.635Z,16.10
2017-09-24T17:33:55.159Z,16.10
2017-09-24T17:36:22.800Z,16.00
2017-09-24T17:38:50.315Z,16.00
2017-09-24T17:41:18.587Z,16.00
2017-09-24T17:43:46.107Z,16.00
2017-09-24T17:46:13.636Z,16.00
2017-09-24T17:48:41.162Z,16.10
2017-09-24T17:51:09.432Z,16.10
2017-09-24T17:53:37.723Z,16.00
2017-09-24T17:56:05.235Z,15.90
2017-09-24T17:58:33.586Z,15.90
2017-09-24T18:01:01.099Z,15.80
2017-09-24T18:03:29.756Z,15.90
2017-09-24T18:05:58.036Z,15.70
2017-09-24T18:08:25.545Z,15.60
2017-09-24T18:10:53.042Z,15.50
2017-09-24T18:13:20.535Z,15.50
2017-09-24T18:15:48.203Z,15.50
2017-09-24T18:18:15.712Z,15.50
2017-09-24T18:20:43.979Z,15.50
2017-09-24T18:23:12.991Z,15.40
2017-09-24T18:25:40.676Z,15.30
2017-09-24T18:28:08.184Z,15.30
2017-09-24T18:30:35.694Z,15.30
2017-09-24T18:33:03.199Z,15.20
2017-09-24T18:35:32.207Z,15.00
2017-09-24T18:38:00.471Z,14.90
2017-09-24T18:40:28.878Z,14.90
2017-09-24T18:42:56.379Z,15.00
2017-09-24T18:45:23.991Z,15.00
2017-09-24T18:47:51.496Z,15.00
2017-09-24T18:50:19.032Z,15.10
2017-09-24T18:52:46.544Z,15.10
2017-09-24T18:55:14.823Z,15.10
2017-09-24T18:57:42.736Z,15.10
2017-09-24T19:00:11.171Z,15.00
2017-09-24T19:02:38.679Z,15.10
2017-09-24T19:05:06.203Z,15.10
2017-09-24T19:07:33.719Z,15.10
2017-09-24T19:10:01.647Z,15.10
2017-09-24T19:12:29.539Z,15.20
2017-09-24T19:14:57.838Z,15.10
2017-09-24T19:17:26.108Z,15.20
2017-09-24T19:19:53.667Z,15.10
2017-09-24T19:22:21.191Z,15.10
2017-09-24T19:24:49.599Z,15.00
2017-09-24T19:27:17.268Z,15.00
2017-09-24T19:29:44.929Z,15.00
2017-09-24T19:32:13.203Z,15.00
2017-09-24T19:34:40.703Z,15.00
2017-09-24T19:37:08.296Z,15.00
2017-09-24T19:39:35.801Z,14.90
2017-09-24T19:42:03.312Z,14.90
2017-09-24T19:44:30.831Z,14.90
2017-09-24T19:46:59.091Z,14.90
2017-09-24T19:49:26.607Z,14.90
2017-09-24T19:51:54.127Z,14.80
2017-09-24T19:54:22.026Z,14.80
2017-09-24T19:56:49.580Z,14.80
2017-09-24T19:59:17.223Z,14.80
2017-09-24T20:01:44.887Z,14.70
2017-09-24T20:04:12.400Z,14.80
2017-09-24T20:06:40.815Z,14.80
2017-09-24T20:09:08.319Z,14.70
2017-09-24T20:11:35.941Z,14.70
2017-09-24T20:14:03.443Z,14.60
2017-09-24T20:16:31.864Z,14.60
2017-09-24T20:19:00.163Z,14.70
2017-09-24T20:21:27.675Z,14.70
2017-09-24T20:23:55.964Z,14.60
2017-09-24T20:26:23.863Z,14.60
2017-09-24T20:28:51.594Z,14.50
2017-09-24T20:31:19.248Z,14.50
2017-09-24T20:33:46.756Z,14.50
2017-09-24T20:36:14.269Z,14.50
2017-09-24T20:38:41.775Z,14.40
2017-09-24T20:41:09.288Z,14.40
2017-09-24T20:43:37.184Z,14.30
2017-09-24T20:46:05.451Z,14.30
2017-09-24T20:48:33.734Z,14.30
2017-09-24T20:51:01.344Z,14.30
2017-09-24T20:53:29.603Z,14.20
2017-09-24T20:55:57.275Z,14.20
2017-09-24T20:58:24.779Z,14.20
2017-09-24T21:00:53.803Z,14.10
2017-09-24T21:03:22.079Z,14.10
2017-09-24T21:05:49.743Z,14.10
2017-09-24T21:08:18.423Z,14.10
2017-09-24T21:10:45.942Z,14.00
2017-09-24T21:13:14.952Z,14.00
2017-09-24T21:15:42.468Z,14.00
2017-09-24T21:18:11.120Z,13.90
2017-09-24T21:20:38.643Z,13.90
2017-09-24T21:23:07.299Z,13.90
2017-09-24T21:25:34.828Z,13.80
2017-09-24T21:28:03.847Z,13.80
2017-09-24T21:30:31.364Z,13.80
2017-09-24T21:32:59.625Z,13.70
2017-09-24T21:35:27.171Z,13.70
2017-09-24T21:37:54.844Z,13.70
2017-09-24T21:40:22.368Z,13.60
2017-09-24T21:42:51.008Z,13.50
2017-09-24T21:45:18.634Z,13.40
2017-09-24T21:47:46.295Z,13.40
2017-09-24T21:50:13.820Z,13.40
2017-09-24T21:55:10.975Z,13.30
2017-09-24T21:57:39.231Z,13.30
2017-09-24T22:00:07.531Z,13.30
2017-09-24T22:02:36.332Z,13.30
2017-09-24T22:05:04.003Z,13.30
2017-09-24T22:10:00.511Z,13.20
2017-09-24T22:12:28.209Z,13.20
2017-09-24T22:14:55.727Z,13.10
2017-09-24T22:17:24.476Z,13.10
2017-09-24T22:19:52.192Z,13.10
2017-09-24T22:22:19.855Z,13.10
2017-09-24T22:24:47.382Z,13.10
2017-09-24T22:27:15.832Z,13.00
2017-09-24T22:29:44.255Z,13.00
2017-09-24T22:32:11.775Z,12.90
2017-09-24T22:34:39.287Z,12.90
2017-09-24T22:37:08.468Z,13.00
2017-09-24T22:39:35.980Z,12.90
2017-09-24T22:42:03.491Z,12.80
2017-09-24T22:44:31.007Z,12.80
2017-09-24T22:46:58.508Z,12.70
2017-09-24T22:49:26.015Z,12.70
2017-09-24T22:51:54.287Z,12.70
2017-09-24T22:54:22.559Z,12.70
2017-09-24T22:56:51.568Z,12.60
2017-09-24T22:59:19.072Z,12.60
2017-09-24T23:01:46.572Z,12.50
2017-09-24T23:04:15.226Z,12.50
2017-09-24T23:06:42.732Z,12.50
2017-09-24T23:09:10.232Z,12.50
2017-09-24T23:11:39.243Z,12.50
2017-09-24T23:14:07.514Z,12.40
2017-09-24T23:16:35.799Z,12.40
2017-09-24T23:19:03.699Z,12.40
2017-09-24T23:21:31.991Z,12.40
2017-09-24T23:23:59.504Z,12.40
2017-09-24T23:26:27.071Z,12.30
2017-09-24T23:28:54.636Z,12.40
2017-09-24T23:31:22.930Z,12.30
2017-09-24T23:33:50.827Z,12.30
2017-09-24T23:36:19.242Z,12.30
2017-09-24T23:38:46.752Z,12.20
2017-09-24T23:41:15.496Z,12.20
2017-09-24T23:43:43.027Z,12.20
2017-09-24T23:46:10.552Z,12.20
2017-09-24T23:48:38.826Z,12.10
2017-09-24T23:51:08.047Z,12.10
2017-09-24T23:53:35.556Z,12.10
2017-09-24T23:56:03.162Z,12.00
2017-09-24T23:58:30.664Z,12.00
